Time;durP1;ratioP1;P1;durP2;ratioP2;P2;SDS_P1;SDS_P2;PMS_P1;PMS_P2;Temp;Humidity;BMP_temperature;BMP_pressure;BME280_temperature;BME280_humidity;BME280_pressure;Samples;Min_cycle;Max_cycle;Signal;HPM_P1;HPM_P2
2023/07/11 00:02:18;;;;;;;3.33;3.10;;;;;;;;;;6337203;28;20235;-72
2023/07/11 00:05:23;;;;;;;3.35;3.15;;;;;;;;;;6337383;28;20242;-70
2023/07/11 00:08:28;;;;;;;3.90;3.20;;;;;;;;;;6336866;28;20258;-71
2023/07/11 00:11:34;;;;;;;3.50;3.30;;;;;;;;;;6337335;28;20504;-71
2023/07/11 00:14:39;;;;;;;3.35;3.00;;;;;;;;;;6336889;28;20234;-70
2023/07/11 00:17:43;;;;;;;3.10;3.00;;;;;;;;;;6336744;28;20242;-70
2023/07/11 00:20:48;;;;;;;3.10;3.00;;;;;;;;;;6336675;28;20238;-71
2023/07/11 00:23:52;;;;;;;2.92;2.83;;;;;;;;;;6335239;28;20551;-70
2023/07/11 00:26:58;;;;;;;2.90;2.90;;;;;;;;;;6336366;28;20262;-71
2023/07/11 00:30:03;;;;;;;3.80;3.60;;;;;;;;;;6336663;28;20238;-70
2023/07/11 00:33:08;;;;;;;3.58;3.33;;;;;;;;;;6286872;28;20236;-70
2023/07/11 00:36:12;;;;;;;3.60;3.38;;;;;;;;;;6285387;28;20579;-71
2023/07/11 00:39:19;;;;;;;3.38;3.28;;;;;;;;;;6286487;28;20240;-69
2023/07/11 00:42:25;;;;;;;4.03;3.63;;;;;;;;;;6286438;28;20263;-71
2023/07/11 00:46:00;;;;;;;3.35;3.25;;;;;;;;;;6284982;28;20286;-70
2023/07/11 00:49:05;;;;;;;2.95;2.95;;;;;;;;;;6284476;28;20276;-71
2023/07/11 00:52:10;;;;;;;3.22;3.03;;;;;;;;;;6286181;28;20524;-71
2023/07/11 00:55:15;;;;;;;3.17;3.08;;;;;;;;;;6285126;28;20287;-71
2023/07/11 00:58:22;;;;;;;3.38;3.17;;;;;;;;;;6285436;28;20243;-71
2023/07/11 01:01:27;;;;;;;3.08;3.08;;;;;;;;;;6285945;28;20232;-70
2023/07/11 01:04:32;;;;;;;3.47;3.30;;;;;;;;;;6285404;28;20239;-71
2023/07/11 01:07:38;;;;;;;3.47;3.00;;;;;;;;;;6284051;28;20397;-70
2023/07/11 01:10:43;;;;;;;3.05;2.95;;;;;;;;;;6285415;28;20397;-70
2023/07/11 01:13:49;;;;;;;3.58;3.30;;;;;;;;;;6285100;28;20244;-70
2023/07/11 01:16:54;;;;;;;3.10;3.00;;;;;;;;;;6285271;28;20244;-69
2023/07/11 01:19:59;;;;;;;2.95;2.88;;;;;;;;;;6285155;28;20239;-70
2023/07/11 01:23:05;;;;;;;3.10;2.95;;;;;;;;;;6284799;28;20433;-68
2023/07/11 01:26:11;;;;;;;3.38;3.08;;;;;;;;;;6285269;28;20244;-69
2023/07/11 01:29:16;;;;;;;3.00;2.85;;;;;;;;;;6283809;28;20294;-69
2023/07/11 01:32:21;;;;;;;3.03;2.85;;;;;;;;;;6322055;28;20309;-69
2023/07/11 01:35:25;;;;;;;3.42;3.13;;;;;;;;;;6333469;28;20358;-69
2023/07/11 01:38:34;;;;;;;3.17;3.08;;;;;;;;;;6335001;28;20239;-70
2023/07/11 01:41:38;;;;;;;3.72;3.63;;;;;;;;;;6335092;28;20230;-71
2023/07/11 01:44:44;;;;;;;3.20;3.10;;;;;;;;;;6335129;28;20234;-69
2023/07/11 01:47:49;;;;;;;3.53;3.30;;;;;;;;;;6335161;28;20261;-69
2023/07/11 01:50:54;;;;;;;3.60;3.50;;;;;;;;;;6334543;28;20396;-70
2023/07/11 01:54:00;;;;;;;3.30;3.20;;;;;;;;;;6334893;28;20238;-68
2023/07/11 01:57:07;;;;;;;3.75;3.53;;;;;;;;;;6334556;28;20286;-69
2023/07/11 02:00:14;;;;;;;3.42;3.30;;;;;;;;;;6333468;28;20266;-70
2023/07/11 02:03:28;;;;;;;3.15;3.05;;;;;;;;;;6342796;28;20255;-69
2023/07/11 02:06:33;;;;;;;3.17;3.05;;;;;;;;;;6333701;28;20538;-71
2023/07/11 02:09:39;;;;;;;3.35;3.15;;;;;;;;;;6336082;28;20293;-70
2023/07/11 02:12:44;;;;;;;3.25;3.08;;;;;;;;;;6339318;28;20237;-69
2023/07/11 02:15:48;;;;;;;3.10;2.90;;;;;;;;;;6338190;28;20304;-69
2023/07/11 02:18:55;;;;;;;3.25;3.05;;;;;;;;;;6339310;28;20269;-69
2023/07/11 02:22:00;;;;;;;3.72;3.42;;;;;;;;;;6337870;28;20300;-69
2023/07/11 02:25:07;;;;;;;3.38;3.08;;;;;;;;;;6339389;28;20371;-69
2023/07/11 02:28:11;;;;;;;3.33;3.13;;;;;;;;;;6339118;28;20427;-70
2023/07/11 02:31:16;;;;;;;3.20;3.10;;;;;;;;;;6338674;28;20443;-69
2023/07/11 02:34:21;;;;;;;2.95;2.80;;;;;;;;;;6339306;28;20230;-71
2023/07/11 02:37:25;;;;;;;3.35;3.03;;;;;;;;;;6339057;28;20398;-69
2023/07/11 02:40:31;;;;;;;3.00;2.90;;;;;;;;;;6338900;28;20250;-68
2023/07/11 02:43:36;;;;;;;3.05;2.95;;;;;;;;;;6337391;28;20438;-70
2023/07/11 02:46:40;;;;;;;3.13;2.80;;;;;;;;;;6337745;28;20361;-69
2023/07/11 02:49:45;;;;;;;2.83;2.72;;;;;;;;;;6338443;28;20262;-69
2023/07/11 02:52:50;;;;;;;3.22;3.03;;;;;;;;;;6338668;28;20487;-70
2023/07/11 02:55:56;;;;;;;12.88;3.15;;;;;;;;;;6338355;28;20239;-71
2023/07/11 02:59:01;;;;;;;3.00;2.80;;;;;;;;;;6338277;28;20251;-70
2023/07/11 03:02:06;;;;;;;3.13;3.03;;;;;;;;;;6338853;28;20527;-70
2023/07/11 03:05:11;;;;;;;3.05;2.85;;;;;;;;;;6338465;28;20446;-69
2023/07/11 03:08:17;;;;;;;2.97;2.88;;;;;;;;;;6338350;28;20274;-70
2023/07/11 03:11:22;;;;;;;2.70;2.70;;;;;;;;;;6338270;28;20242;-70
2023/07/11 03:14:27;;;;;;;2.83;2.72;;;;;;;;;;6337959;28;20235;-70
2023/07/11 03:17:32;;;;;;;3.15;3.00;;;;;;;;;;6338122;28;20239;-70
2023/07/11 03:20:37;;;;;;;4.45;2.80;;;;;;;;;;6335994;28;20412;-71
2023/07/11 03:23:42;;;;;;;3.40;3.30;;;;;;;;;;6337971;28;20239;-69
2023/07/11 03:26:48;;;;;;;3.05;2.85;;;;;;;;;;6337692;28;20339;-69
2023/07/11 03:29:53;;;;;;;2.95;2.60;;;;;;;;;;6337662;28;20361;-70
2023/07/11 03:32:57;;;;;;;2.75;2.58;;;;;;;;;;6337951;28;20466;-69
2023/07/11 03:36:02;;;;;;;2.97;2.88;;;;;;;;;;6337201;28;20455;-70
2023/07/11 03:39:06;;;;;;;3.10;2.80;;;;;;;;;;6337685;28;20246;-70
2023/07/11 03:42:12;;;;;;;2.53;2.53;;;;;;;;;;6337559;28;20238;-69
2023/07/11 03:45:17;;;;;;;2.95;2.85;;;;;;;;;;6337604;28;20468;-70
2023/07/11 03:48:22;;;;;;;3.10;3.00;;;;;;;;;;6337482;28;20585;-69
2023/07/11 03:51:26;;;;;;;4.32;3.00;;;;;;;;;;6336914;28;20254;-71
2023/07/11 03:54:31;;;;;;;3.13;2.92;;;;;;;;;;6336560;28;20235;-71
2023/07/11 03:57:37;;;;;;;3.08;2.97;;;;;;;;;;6337202;28;20238;-71
2023/07/11 04:00:41;;;;;;;2.92;2.78;;;;;;;;;;6336906;28;20242;-70
2023/07/11 04:03:46;;;;;;;3.20;3.10;;;;;;;;;;6337040;28;20246;-69
2023/07/11 04:06:51;;;;;;;3.28;2.78;;;;;;;;;;6336835;28;20234;-70
2023/07/11 04:09:55;;;;;;;2.42;2.42;;;;;;;;;;6336727;28;20266;-69
2023/07/11 04:13:02;;;;;;;2.70;2.58;;;;;;;;;;6336789;28;20243;-69
2023/07/11 04:16:07;;;;;;;2.70;2.40;;;;;;;;;;6336764;28;20238;-70
2023/07/11 04:19:11;;;;;;;2.65;2.65;;;;;;;;;;6336475;28;20251;-69
2023/07/11 04:22:16;;;;;;;2.67;2.15;;;;;;;;;;6335270;28;20273;-69
2023/07/11 04:25:21;;;;;;;2.53;2.50;;;;;;;;;;6336361;28;20237;-70
2023/07/11 04:28:27;;;;;;;3.17;2.80;;;;;;;;;;6336036;28;20323;-69
2023/07/11 04:31:32;;;;;;;2.80;2.60;;;;;;;;;;6335163;28;20472;-69
2023/07/11 04:34:36;;;;;;;3.75;2.47;;;;;;;;;;6336113;28;20238;-70
2023/07/11 04:37:41;;;;;;;6.13;2.50;;;;;;;;;;6335849;28;20402;-70
2023/07/11 04:40:46;;;;;;;2.90;2.63;;;;;;;;;;6335791;28;20242;-70
2023/07/11 04:43:52;;;;;;;4.10;2.55;;;;;;;;;;6336342;28;20234;-71
2023/07/11 04:46:57;;;;;;;3.38;2.50;;;;;;;;;;6335960;28;20242;-70
2023/07/11 04:50:02;;;;;;;3.92;2.35;;;;;;;;;;6335817;28;20261;-70
2023/07/11 04:53:06;;;;;;;2.75;2.28;;;;;;;;;;6335877;28;20250;-69
2023/07/11 04:56:12;;;;;;;2.33;2.20;;;;;;;;;;6336044;28;20231;-70
2023/07/11 04:59:18;;;;;;;2.60;2.30;;;;;;;;;;6335396;28;20290;-70
2023/07/11 05:02:22;;;;;;;2.20;2.10;;;;;;;;;;6335178;28;20271;-69
2023/07/11 05:05:27;;;;;;;2.25;1.88;;;;;;;;;;6335084;28;20309;-69
2023/07/11 05:08:32;;;;;;;2.05;2.00;;;;;;;;;;6335404;28;20457;-69
2023/07/11 05:11:37;;;;;;;2.45;2.17;;;;;;;;;;6335138;28;20258;-69
2023/07/11 05:14:43;;;;;;;2.40;2.20;;;;;;;;;;6335469;28;20246;-70
2023/07/11 05:17:48;;;;;;;2.50;2.30;;;;;;;;;;6335401;28;20238;-70
2023/07/11 05:20:55;;;;;;;1.90;1.80;;;;;;;;;;6335320;28;20234;-70
2023/07/11 05:24:01;;;;;;;4.97;2.30;;;;;;;;;;6334912;28;20238;-69
2023/07/11 05:27:06;;;;;;;2.10;2.00;;;;;;;;;;6334713;28;20246;-69
2023/07/11 05:30:13;;;;;;;3.92;2.22;;;;;;;;;;6334766;28;20336;-69
2023/07/11 05:33:18;;;;;;;2.30;2.17;;;;;;;;;;6335154;28;20262;-69
2023/07/11 05:36:31;;;;;;;3.67;2.00;;;;;;;;;;6334952;28;20250;-69
2023/07/11 05:39:35;;;;;;;1.75;1.75;;;;;;;;;;6335043;28;20230;-70
2023/07/11 05:42:40;;;;;;;3.03;1.63;;;;;;;;;;6335014;28;20242;-70
2023/07/11 05:45:46;;;;;;;2.00;1.90;;;;;;;;;;6334402;28;20337;-71
2023/07/11 05:48:51;;;;;;;2.45;1.90;;;;;;;;;;6334680;28;20234;-70
2023/07/11 05:51:55;;;;;;;2.33;1.70;;;;;;;;;;6334861;28;20426;-70
2023/07/11 05:55:00;;;;;;;1.83;1.70;;;;;;;;;;6334968;28;20242;-70
2023/07/11 05:58:04;;;;;;;2.25;1.80;;;;;;;;;;6334827;28;20246;-71
2023/07/11 06:01:12;;;;;;;2.10;1.90;;;;;;;;;;6334260;28;20238;-70
2023/07/11 06:04:17;;;;;;;1.95;1.88;;;;;;;;;;6334597;28;20239;-69
2023/07/11 06:07:22;;;;;;;1.90;1.90;;;;;;;;;;6334383;28;20543;-69
2023/07/11 06:10:27;;;;;;;1.90;1.90;;;;;;;;;;6334620;28;20262;-69
2023/07/11 06:13:33;;;;;;;1.98;1.98;;;;;;;;;;6334755;28;20230;-70
2023/07/11 06:16:40;;;;;;;1.80;1.80;;;;;;;;;;6334624;28;20387;-70
2023/07/11 06:19:45;;;;;;;5.10;2.08;;;;;;;;;;6334221;28;20246;-70
2023/07/11 06:22:50;;;;;;;1.95;1.95;;;;;;;;;;6334307;28;20242;-70
2023/07/11 06:25:55;;;;;;;1.98;1.98;;;;;;;;;;6334665;28;20235;-70
2023/07/11 06:28:59;;;;;;;1.77;1.70;;;;;;;;;;6335407;28;20250;-69
2023/07/11 06:32:06;;;;;;;3.95;2.00;;;;;;;;;;6334407;28;20299;-69
2023/07/11 06:35:11;;;;;;;2.58;1.63;;;;;;;;;;6333885;28;20242;-70
2023/07/11 06:38:16;;;;;;;1.98;1.90;;;;;;;;;;6334303;28;20238;-70
2023/07/11 06:41:20;;;;;;;5.53;1.95;;;;;;;;;;6333096;28;20285;-69
2023/07/11 06:44:25;;;;;;;2.25;1.73;;;;;;;;;;6334304;28;20408;-69
2023/07/11 06:47:31;;;;;;;1.67;1.67;;;;;;;;;;6334101;28;20230;-70
2023/07/11 06:50:36;;;;;;;1.90;1.83;;;;;;;;;;6333664;28;20258;-70
2023/07/11 06:53:40;;;;;;;2.00;2.00;;;;;;;;;;6334297;28;20231;-70
2023/07/11 06:56:45;;;;;;;3.08;1.70;;;;;;;;;;6337121;28;20246;-70
2023/07/11 06:59:50;;;;;;;1.90;1.80;;;;;;;;;;6338648;28;20243;-70
2023/07/11 07:02:56;;;;;;;3.00;1.80;;;;;;;;;;6337951;28;20404;-70
2023/07/11 07:06:03;;;;;;;1.65;1.65;;;;;;;;;;6338317;28;20263;-70
2023/07/11 07:09:08;;;;;;;2.08;1.98;;;;;;;;;;6338235;28;20250;-70
2023/07/11 07:12:13;;;;;;;8.15;1.70;;;;;;;;;;6337834;28;20425;-70
2023/07/11 07:15:18;;;;;;;1.95;1.95;;;;;;;;;;6337779;28;20238;-70
2023/07/11 07:18:25;;;;;;;2.33;1.90;;;;;;;;;;6338394;28;20239;-70
2023/07/11 07:21:29;;;;;;;2.00;1.90;;;;;;;;;;6337632;28;20245;-69
2023/07/11 07:24:34;;;;;;;1.73;1.63;;;;;;;;;;6337987;28;20250;-69
2023/07/11 07:27:39;;;;;;;3.17;2.10;;;;;;;;;;6338059;28;20230;-70
2023/07/11 07:30:46;;;;;;;3.33;1.90;;;;;;;;;;6336306;28;20309;-70
2023/07/11 07:33:52;;;;;;;2.95;1.70;;;;;;;;;;6337668;28;20243;-70
2023/07/11 07:36:57;;;;;;;2.33;2.13;;;;;;;;;;6337675;28;20243;-70
2023/07/11 07:40:02;;;;;;;2.10;2.00;;;;;;;;;;6337484;28;20393;-70
2023/07/11 07:43:06;;;;;;;1.90;1.80;;;;;;;;;;6337441;28;20246;-70
2023/07/11 07:46:14;;;;;;;1.95;1.85;;;;;;;;;;6336704;28;20451;-70
2023/07/11 07:49:20;;;;;;;1.85;1.85;;;;;;;;;;6337134;28;20407;-70
2023/07/11 07:52:25;;;;;;;2.70;1.90;;;;;;;;;;6336923;28;20426;-70
2023/07/11 07:55:30;;;;;;;5.13;1.95;;;;;;;;;;6336304;28;20521;-69
2023/07/11 07:58:35;;;;;;;3.45;2.15;;;;;;;;;;6337138;28;20234;-69
2023/07/11 08:01:47;;;;;;;1.83;1.83;;;;;;;;;;6337162;28;20503;-70
2023/07/11 08:04:53;;;;;;;1.70;1.70;;;;;;;;;;6337166;28;20242;-70
2023/07/11 08:07:58;;;;;;;2.38;1.90;;;;;;;;;;6336666;28;20246;-69
2023/07/11 08:11:03;;;;;;;2.42;2.00;;;;;;;;;;6336445;28;20266;-69
2023/07/11 08:14:09;;;;;;;5.40;2.03;;;;;;;;;;6336729;28;20239;-69
2023/07/11 08:17:13;;;;;;;2.28;2.17;;;;;;;;;;6336280;28;20239;-71
2023/07/11 08:20:19;;;;;;;2.20;2.20;;;;;;;;;;6336531;28;20231;-70
2023/07/11 08:23:24;;;;;;;2.75;2.10;;;;;;;;;;6336611;28;20251;-71
2023/07/11 08:26:28;;;;;;;2.20;2.10;;;;;;;;;;6336963;28;20246;-71
2023/07/11 08:29:33;;;;;;;2.03;1.77;;;;;;;;;;6336121;28;20405;-70
2023/07/11 08:32:38;;;;;;;1.88;1.83;;;;;;;;;;6335529;28;20570;-69
2023/07/11 08:35:48;;;;;;;2.00;2.00;;;;;;;;;;6336389;28;20246;-70
2023/07/11 08:38:52;;;;;;;2.30;2.20;;;;;;;;;;6336329;28;20242;-69
2023/07/11 08:41:57;;;;;;;2.13;2.03;;;;;;;;;;6336335;28;20242;-70
2023/07/11 08:45:06;;;;;;;2.38;2.30;;;;;;;;;;6336105;28;20242;-71
2023/07/11 08:48:15;;;;;;;2.88;1.88;;;;;;;;;;6335335;28;20420;-69
2023/07/11 08:51:25;;;;;;;3.58;2.00;;;;;;;;;;6335768;28;20327;-70
2023/07/11 08:54:31;;;;;;;1.83;1.80;;;;;;;;;;6335460;28;20238;-70
2023/07/11 08:57:40;;;;;;;3.10;2.05;;;;;;;;;;6335341;28;20263;-70
2023/07/11 09:00:47;;;;;;;2.25;2.25;;;;;;;;;;6336592;28;20243;-70
2023/07/11 09:03:52;;;;;;;2.25;2.05;;;;;;;;;;6335404;28;20246;-69
2023/07/11 09:07:01;;;;;;;2.00;1.90;;;;;;;;;;6335263;28;20242;-70
2023/07/11 09:10:22;;;;;;;2.47;2.28;;;;;;;;;;6335190;28;20238;-70
2023/07/11 09:13:55;;;;;;;2.17;2.17;;;;;;;;;;6334964;28;20262;-70
2023/07/11 09:17:07;;;;;;;2.40;2.35;;;;;;;;;;6335185;28;20266;-69
2023/07/11 09:20:20;;;;;;;2.40;2.13;;;;;;;;;;6334136;28;20235;-70
2023/07/11 09:23:38;;;;;;;2.20;2.10;;;;;;;;;;6335294;28;20246;-70
2023/07/11 09:26:48;;;;;;;2.22;2.13;;;;;;;;;;6335517;28;20235;-71
2023/07/11 09:29:52;;;;;;;2.28;2.10;;;;;;;;;;6335496;28;20243;-70
2023/07/11 09:33:00;;;;;;;4.38;2.35;;;;;;;;;;6333645;28;20309;-70
2023/07/11 09:36:16;;;;;;;4.00;2.22;;;;;;;;;;6334941;28;20436;-70
2023/07/11 09:39:29;;;;;;;4.45;2.28;;;;;;;;;;6334960;28;20234;-69
2023/07/11 09:42:42;;;;;;;2.47;2.00;;;;;;;;;;6335113;28;20289;-70
2023/07/11 09:45:47;;;;;;;3.85;2.00;;;;;;;;;;6335192;28;20238;-70
2023/07/11 09:48:55;;;;;;;4.22;2.30;;;;;;;;;;6334721;28;20406;-70
2023/07/11 09:52:01;;;;;;;2.30;2.20;;;;;;;;;;6334849;28;20296;-70
2023/07/11 09:55:24;;;;;;;4.68;2.20;;;;;;;;;;6334949;28;20238;-71
2023/07/11 09:58:30;;;;;;;3.15;2.25;;;;;;;;;;6333951;28;20557;-70
2023/07/11 10:01:36;;;;;;;3.70;2.40;;;;;;;;;;6334985;28;20239;-70
2023/07/11 10:04:43;;;;;;;3.05;1.92;;;;;;;;;;6334445;28;20297;-69
2023/07/11 10:07:59;;;;;;;3.08;2.28;;;;;;;;;;6334573;28;20389;-70
2023/07/11 10:11:10;;;;;;;5.35;2.00;;;;;;;;;;6334689;28;20239;-70
2023/07/11 10:14:19;;;;;;;2.00;2.00;;;;;;;;;;6334801;28;20270;-70
2023/07/11 10:17:25;;;;;;;1.85;1.85;;;;;;;;;;6334446;28;20298;-69
2023/07/11 10:20:31;;;;;;;2.35;2.25;;;;;;;;;;6333182;28;20285;-70
2023/07/11 10:23:37;;;;;;;2.40;2.30;;;;;;;;;;6334629;28;20251;-70
2023/07/11 10:26:43;;;;;;;1.90;1.80;;;;;;;;;;6334815;28;20511;-69
2023/07/11 10:29:48;;;;;;;3.00;2.28;;;;;;;;;;6334630;28;20527;-70
2023/07/11 10:32:56;;;;;;;4.68;2.15;;;;;;;;;;6339704;28;20289;-70
2023/07/11 10:36:19;;;;;;;3.25;2.20;;;;;;;;;;6339682;28;20234;-69
2023/07/11 10:39:27;;;;;;;2.03;1.80;;;;;;;;;;6339364;28;20239;-69
2023/07/11 10:42:39;;;;;;;2.35;2.22;;;;;;;;;;6338425;28;20274;-69
2023/07/11 10:45:46;;;;;;;4.32;2.00;;;;;;;;;;6339060;28;20539;-71
2023/07/11 10:48:54;;;;;;;5.07;2.22;;;;;;;;;;6339481;28;20289;-70
2023/07/11 10:52:05;;;;;;;2.20;2.10;;;;;;;;;;6338873;28;20276;-70
2023/07/11 10:55:15;;;;;;;2.38;2.20;;;;;;;;;;6339487;28;20238;-70
2023/07/11 10:58:23;;;;;;;2.28;2.20;;;;;;;;;;6338843;28;20242;-71
2023/07/11 11:01:34;;;;;;;2.25;2.05;;;;;;;;;;6338838;28;20234;-70
2023/07/11 11:04:49;;;;;;;3.97;2.28;;;;;;;;;;6338996;28;20242;-70
2023/07/11 11:07:58;;;;;;;5.65;2.60;;;;;;;;;;6338282;28;20457;-69
2023/07/11 11:11:10;;;;;;;2.28;2.05;;;;;;;;;;6338570;28;20425;-70
2023/07/11 11:14:20;;;;;;;2.75;2.08;;;;;;;;;;6338898;28;20262;-72
2023/07/11 11:17:32;;;;;;;3.10;2.40;;;;;;;;;;6338511;28;20503;-70
2023/07/11 11:20:56;;;;;;;2.13;2.00;;;;;;;;;;6338875;28;20234;-70
2023/07/11 11:24:35;;;;;;;2.63;2.20;;;;;;;;;;6339243;28;20425;-70
2023/07/11 11:27:48;;;;;;;4.35;2.30;;;;;;;;;;6339921;28;20258;-69
2023/07/11 11:31:00;;;;;;;2.00;1.90;;;;;;;;;;6338255;28;20289;-70
2023/07/11 11:34:16;;;;;;;3.10;2.00;;;;;;;;;;6338472;28;20281;-70
2023/07/11 11:37:30;;;;;;;2.30;2.10;;;;;;;;;;6338211;28;20247;-70
2023/07/11 11:40:39;;;;;;;1.90;1.80;;;;;;;;;;6337740;28;20324;-70
2023/07/11 11:43:46;;;;;;;1.92;1.90;;;;;;;;;;6337884;28;20234;-70
2023/07/11 11:46:55;;;;;;;2.08;1.98;;;;;;;;;;6336993;28;20270;-70
2023/07/11 11:50:05;;;;;;;2.83;2.00;;;;;;;;;;6337801;28;20238;-70
2023/07/11 11:53:23;;;;;;;4.18;2.10;;;;;;;;;;6337297;28;20270;-69
2023/07/11 11:56:28;;;;;;;2.38;2.17;;;;;;;;;;6337348;28;20234;-69
2023/07/11 11:59:33;;;;;;;4.30;2.40;;;;;;;;;;6337697;28;20235;-69
2023/07/11 12:02:41;;;;;;;3.03;2.10;;;;;;;;;;6337472;28;20238;-70
2023/07/11 12:05:51;;;;;;;4.30;2.60;;;;;;;;;;6337778;28;20230;-70
2023/07/11 12:09:33;;;;;;;2.53;2.40;;;;;;;;;;6337068;28;20239;-69
2023/07/11 12:13:20;;;;;;;5.38;2.40;;;;;;;;;;6337020;28;20238;-70
2023/07/11 12:16:32;;;;;;;2.45;2.10;;;;;;;;;;6336914;28;20492;-70
2023/07/11 12:19:42;;;;;;;7.13;2.22;;;;;;;;;;6337178;28;20239;-70
2023/07/11 12:23:15;;;;;;;2.10;1.98;;;;;;;;;;6336977;28;20234;-70
2023/07/11 12:26:40;;;;;;;2.25;2.13;;;;;;;;;;6337024;28;20238;-69
2023/07/11 12:29:50;;;;;;;5.60;2.20;;;;;;;;;;6337059;28;20251;-70
2023/07/11 12:32:56;;;;;;;1.80;1.80;;;;;;;;;;6337292;28;20285;-71
2023/07/11 12:36:30;;;;;;;2.00;2.00;;;;;;;;;;6336790;28;20238;-70
2023/07/11 12:39:50;;;;;;;2.00;1.95;;;;;;;;;;6336783;28;20234;-69
2023/07/11 12:42:56;;;;;;;3.33;1.73;;;;;;;;;;6336736;28;20423;-71
2023/07/11 12:46:06;;;;;;;2.55;2.13;;;;;;;;;;6336623;28;20234;-69
2023/07/11 12:49:17;;;;;;;2.33;2.10;;;;;;;;;;6336646;28;20234;-69
2023/07/11 12:52:24;;;;;;;2.00;1.90;;;;;;;;;;6335949;28;20518;-70
2023/07/11 12:55:30;;;;;;;1.92;1.92;;;;;;;;;;6335356;28;20464;-70
2023/07/11 12:58:35;;;;;;;2.42;1.90;;;;;;;;;;6335905;28;20246;-70
2023/07/11 13:01:39;;;;;;;2.60;1.92;;;;;;;;;;6335793;28;20242;-70
2023/07/11 13:04:47;;;;;;;2.22;1.92;;;;;;;;;;6335663;28;20258;-69
2023/07/11 13:08:08;;;;;;;8.68;2.20;;;;;;;;;;6335751;28;20238;-70
2023/07/11 13:11:20;;;;;;;1.92;1.92;;;;;;;;;;6335864;28;20238;-71
2023/07/11 13:14:25;;;;;;;2.50;2.30;;;;;;;;;;6335516;28;20333;-70
2023/07/11 13:17:29;;;;;;;2.13;2.03;;;;;;;;;;6335629;28;20244;-70
2023/07/11 13:20:35;;;;;;;2.45;2.00;;;;;;;;;;6334722;28;20269;-69
2023/07/11 13:23:44;;;;;;;4.15;1.95;;;;;;;;;;6334503;28;20570;-69
2023/07/11 13:26:51;;;;;;;2.85;2.30;;;;;;;;;;6335747;28;20238;-70
2023/07/11 13:29:56;;;;;;;1.95;1.85;;;;;;;;;;6335370;28;20239;-70
2023/07/11 13:33:00;;;;;;;2.80;1.83;;;;;;;;;;6335903;28;20290;-70
2023/07/11 13:36:07;;;;;;;2.13;2.10;;;;;;;;;;6335169;28;20257;-70
2023/07/11 13:39:15;;;;;;;1.92;1.92;;;;;;;;;;6335564;28;20235;-72
2023/07/11 13:42:25;;;;;;;3.78;1.98;;;;;;;;;;6335182;28;20238;-70
2023/07/11 13:45:29;;;;;;;2.10;1.83;;;;;;;;;;6335448;28;20242;-70
2023/07/11 13:48:36;;;;;;;3.17;1.85;;;;;;;;;;6335383;28;20253;-70
2023/07/11 13:51:40;;;;;;;3.97;1.80;;;;;;;;;;6336026;28;20239;-70
2023/07/11 13:54:52;;;;;;;3.65;2.05;;;;;;;;;;6336043;28;20250;-70
2023/07/11 13:57:57;;;;;;;3.33;1.90;;;;;;;;;;6334163;28;20273;-70
2023/07/11 14:01:01;;;;;;;3.60;1.90;;;;;;;;;;6335169;28;20246;-70
2023/07/11 14:04:15;;;;;;;1.70;1.70;;;;;;;;;;6335416;28;20246;-70
2023/07/11 14:07:20;;;;;;;1.80;1.70;;;;;;;;;;6339972;28;20483;-72
2023/07/11 14:10:28;;;;;;;1.80;1.70;;;;;;;;;;6339931;28;20547;-69
2023/07/11 14:13:34;;;;;;;7.78;2.17;;;;;;;;;;6340176;28;20234;-70
2023/07/11 14:16:38;;;;;;;3.97;1.92;;;;;;;;;;6339831;28;20270;-70
2023/07/11 14:19:43;;;;;;;1.90;1.90;;;;;;;;;;6339781;28;20238;-70
2023/07/11 14:22:47;;;;;;;2.05;2.00;;;;;;;;;;6339744;28;20238;-71
2023/07/11 14:25:54;;;;;;;3.63;1.83;;;;;;;;;;6339754;28;20242;-69
2023/07/11 14:28:59;;;;;;;3.17;2.10;;;;;;;;;;6339923;28;20234;-70
2023/07/11 14:32:04;;;;;;;1.77;1.70;;;;;;;;;;6339274;28;20578;-70
2023/07/11 14:35:14;;;;;;;1.77;1.73;;;;;;;;;;6339503;28;20258;-70
2023/07/11 14:38:21;;;;;;;1.80;1.80;;;;;;;;;;6339773;28;20238;-71
2023/07/11 14:41:26;;;;;;;4.32;2.15;;;;;;;;;;6339806;28;20252;-71
2023/07/11 14:44:48;;;;;;;3.95;2.08;;;;;;;;;;6339631;28;20555;-71
2023/07/11 14:47:53;;;;;;;2.30;2.20;;;;;;;;;;6339390;28;20425;-71
2023/07/11 14:51:01;;;;;;;4.03;1.92;;;;;;;;;;6339272;28;20253;-70
2023/07/11 14:54:12;;;;;;;2.38;1.90;;;;;;;;;;6338939;28;20238;-70
2023/07/11 14:57:18;;;;;;;1.85;1.75;;;;;;;;;;6338826;28;20246;-70
2023/07/11 15:00:43;;;;;;;2.17;2.15;;;;;;;;;;6339112;28;20511;-70
2023/07/11 15:03:48;;;;;;;2.47;2.28;;;;;;;;;;6338809;28;20426;-70
2023/07/11 15:06:58;;;;;;;2.30;2.20;;;;;;;;;;6339075;28;20247;-70
2023/07/11 15:10:23;;;;;;;5.85;2.13;;;;;;;;;;6338099;28;20452;-70
2023/07/11 15:13:30;;;;;;;2.25;2.05;;;;;;;;;;6339151;28;20243;-70
2023/07/11 15:16:37;;;;;;;2.28;1.95;;;;;;;;;;6337609;28;20270;-70
2023/07/11 15:19:42;;;;;;;2.22;2.00;;;;;;;;;;6338418;28;20246;-70
2023/07/11 15:22:50;;;;;;;3.10;2.22;;;;;;;;;;6338345;28;20330;-69
2023/07/11 15:25:55;;;;;;;3.42;2.13;;;;;;;;;;6338405;28;20321;-70
2023/07/11 15:29:01;;;;;;;2.33;2.20;;;;;;;;;;6338696;28;20401;-70
2023/07/11 15:32:17;;;;;;;2.10;2.00;;;;;;;;;;6337984;28;20325;-69
2023/07/11 15:35:24;;;;;;;4.95;2.40;;;;;;;;;;6338087;28;20555;-69
2023/07/11 15:38:29;;;;;;;2.58;2.47;;;;;;;;;;6337929;28;20547;-69
2023/07/11 15:41:33;;;;;;;3.05;2.10;;;;;;;;;;6337827;28;20507;-70
2023/07/11 15:44:48;;;;;;;3.83;2.60;;;;;;;;;;6337973;28;20444;-69
2023/07/11 15:47:53;;;;;;;2.05;2.00;;;;;;;;;;6337784;28;20238;-69
2023/07/11 15:51:00;;;;;;;2.53;2.33;;;;;;;;;;6337675;28;20254;-70
2023/07/11 15:54:04;;;;;;;2.25;2.20;;;;;;;;;;6337615;28;20234;-71
2023/07/11 15:57:21;;;;;;;2.58;2.38;;;;;;;;;;6337643;28;20269;-70
2023/07/11 16:00:29;;;;;;;2.40;2.33;;;;;;;;;;6337907;28;20231;-71
2023/07/11 16:03:34;;;;;;;3.40;2.10;;;;;;;;;;6337713;28;20234;-69
2023/07/11 16:06:39;;;;;;;4.03;2.53;;;;;;;;;;6337438;28;20242;-69
2023/07/11 16:09:43;;;;;;;3.08;2.20;;;;;;;;;;6337614;28;20239;-70
2023/07/11 16:12:48;;;;;;;2.83;2.63;;;;;;;;;;6337118;28;20238;-70
2023/07/11 16:15:58;;;;;;;3.13;2.47;;;;;;;;;;6337085;28;20266;-70
2023/07/11 16:19:03;;;;;;;2.60;2.38;;;;;;;;;;6337198;28;20247;-70
2023/07/11 16:22:12;;;;;;;2.55;2.40;;;;;;;;;;6337546;28;20425;-71
2023/07/11 16:25:17;;;;;;;2.70;2.30;;;;;;;;;;6337279;28;20242;-70
2023/07/11 16:28:33;;;;;;;3.88;2.17;;;;;;;;;;6337082;28;20242;-69
2023/07/11 16:31:40;;;;;;;2.92;2.45;;;;;;;;;;6336750;28;20295;-69
2023/07/11 16:34:44;;;;;;;2.45;2.17;;;;;;;;;;6337006;28;20234;-69
2023/07/11 16:37:49;;;;;;;2.45;2.28;;;;;;;;;;6335559;28;20293;-70
2023/07/11 16:40:54;;;;;;;2.88;2.67;;;;;;;;;;6336594;28;20246;-71
2023/07/11 16:43:59;;;;;;;3.05;2.83;;;;;;;;;;6336695;28;20287;-70
2023/07/11 16:47:09;;;;;;;3.50;2.60;;;;;;;;;;6336527;28;20238;-70
2023/07/11 16:50:21;;;;;;;3.90;2.20;;;;;;;;;;6336516;28;20242;-70
2023/07/11 16:53:28;;;;;;;2.25;2.25;;;;;;;;;;6336260;28;20238;-70
2023/07/11 16:56:34;;;;;;;3.60;2.20;;;;;;;;;;6336455;28;20262;-70
2023/07/11 16:59:39;;;;;;;2.70;2.60;;;;;;;;;;6335900;28;20246;-70
2023/07/11 17:02:46;;;;;;;2.53;2.35;;;;;;;;;;6335806;28;20238;-70
2023/07/11 17:05:50;;;;;;;3.10;3.00;;;;;;;;;;6335771;28;20514;-70
2023/07/11 17:08:56;;;;;;;2.88;2.45;;;;;;;;;;6336137;28;20247;-71
2023/07/11 17:12:01;;;;;;;2.47;2.33;;;;;;;;;;6336203;28;20246;-70
2023/07/11 17:15:08;;;;;;;2.70;2.50;;;;;;;;;;6335764;28;20303;-70
2023/07/11 17:18:16;;;;;;;3.67;2.78;;;;;;;;;;6335900;28;20258;-70
2023/07/11 17:21:20;;;;;;;2.53;2.38;;;;;;;;;;6335889;28;20238;-68
2023/07/11 17:24:27;;;;;;;2.78;2.47;;;;;;;;;;6335775;28;20246;-70
2023/07/11 17:27:32;;;;;;;5.50;2.70;;;;;;;;;;6335872;28;20530;-70
2023/07/11 17:30:36;;;;;;;3.00;2.83;;;;;;;;;;6335396;28;20285;-70
2023/07/11 17:33:42;;;;;;;3.80;2.40;;;;;;;;;;6335443;28;20238;-69
2023/07/11 17:36:48;;;;;;;2.83;2.58;;;;;;;;;;6335249;28;20452;-70
2023/07/11 17:39:53;;;;;;;4.68;2.60;;;;;;;;;;6334341;28;20262;-71
2023/07/11 17:42:58;;;;;;;2.80;2.50;;;;;;;;;;6335272;28;20241;-70
2023/07/11 17:46:05;;;;;;;2.72;2.50;;;;;;;;;;6335135;28;20238;-70
2023/07/11 17:49:31;;;;;;;2.65;2.47;;;;;;;;;;6335561;28;20262;-71
2023/07/11 17:52:36;;;;;;;2.72;2.50;;;;;;;;;;6335328;28;20233;-70
2023/07/11 17:55:41;;;;;;;2.97;2.75;;;;;;;;;;6334101;28;20325;-70
2023/07/11 17:58:46;;;;;;;4.78;2.60;;;;;;;;;;6334847;28;20266;-71
2023/07/11 18:01:50;;;;;;;2.42;2.40;;;;;;;;;;6334896;28;20242;-69
2023/07/11 18:04:58;;;;;;;3.97;2.40;;;;;;;;;;6335349;28;20230;-70
2023/07/11 18:08:02;;;;;;;3.05;2.95;;;;;;;;;;6334770;28;20247;-70
2023/07/11 18:11:08;;;;;;;2.78;2.50;;;;;;;;;;6334870;28;20246;-70
2023/07/11 18:14:13;;;;;;;2.60;2.40;;;;;;;;;;6335238;28;20238;-70
2023/07/11 18:17:20;;;;;;;3.42;2.65;;;;;;;;;;6334813;28;20258;-70
2023/07/11 18:20:26;;;;;;;2.55;2.42;;;;;;;;;;6335101;28;20246;-70
2023/07/11 18:23:33;;;;;;;2.53;2.42;;;;;;;;;;6334897;28;20243;-70
2023/07/11 18:26:37;;;;;;;3.00;2.90;;;;;;;;;;6335226;28;20242;-69
2023/07/11 18:29:42;;;;;;;2.72;2.63;;;;;;;;;;6335194;28;20234;-70
2023/07/11 18:32:48;;;;;;;2.50;2.40;;;;;;;;;;6332836;28;20306;-70
2023/07/11 18:35:54;;;;;;;2.80;2.60;;;;;;;;;;6333680;28;20289;-71
2023/07/11 18:38:59;;;;;;;2.80;2.65;;;;;;;;;;6334596;28;20265;-69
2023/07/11 18:42:12;;;;;;;2.45;2.35;;;;;;;;;;6334886;28;20242;-70
2023/07/11 18:45:17;;;;;;;2.55;2.40;;;;;;;;;;6334869;28;20255;-71